Time;durP1;ratioP1;P1;durP2;ratioP2;P2;SDS_P1;SDS_P2;PMS_P1;PMS_P2;Temp;Humidity;BMP_temperature;BMP_pressure;BME280_temperature;BME280_humidity;BME280_pressure;Samples;Min_cycle;Max_cycle;Signal;HPM_P1;HPM_P2
2022/04/09 00:01:25;;;;;;;2.17;0.70;;;4.90;99.90;;;;;;5092667;28;20196;-58
2022/04/09 00:03:50;;;;;;;0.50;0.50;;;4.80;99.90;;;;;;5094103;28;20193;-57
2022/04/09 00:06:16;;;;;;;1.77;0.80;;;4.80;99.90;;;;;;5096466;28;20234;-57
2022/04/09 00:08:42;;;;;;;1.45;0.70;;;4.80;99.90;;;;;;5096109;28;20182;-57
2022/04/09 00:11:08;;;;;;;3.00;1.03;;;4.70;99.90;;;;;;5096304;28;20179;-57
2022/04/09 00:13:35;;;;;;;0.95;0.75;;;4.70;99.90;;;;;;5096100;28;20197;-57
2022/04/09 00:16:00;;;;;;;1.48;0.90;;;4.70;99.90;;;;;;5096060;28;20259;-57
2022/04/09 00:18:26;;;;;;;1.60;1.00;;;4.70;99.90;;;;;;5077965;28;20268;-57
2022/04/09 00:20:52;;;;;;;2.95;0.82;;;4.80;99.90;;;;;;5095211;28;20209;-58
2022/04/09 00:23:18;;;;;;;2.33;1.10;;;4.70;99.90;;;;;;5095973;28;20592;-57
2022/04/09 00:25:45;;;;;;;1.37;1.07;;;4.70;99.90;;;;;;5096008;28;20192;-57
2022/04/09 00:28:11;;;;;;;1.33;0.80;;;4.70;99.90;;;;;;5095811;28;20537;-57
2022/04/09 00:30:36;;;;;;;2.33;0.70;;;4.70;99.90;;;;;;5095871;28;20177;-57
2022/04/09 00:33:02;;;;;;;1.50;0.98;;;4.60;99.90;;;;;;5095810;28;20184;-57
2022/04/09 00:35:28;;;;;;;1.85;0.95;;;4.70;99.90;;;;;;5095666;28;20185;-57
2022/04/09 00:37:53;;;;;;;2.63;1.02;;;4.70;99.90;;;;;;5095621;28;20189;-57
2022/04/09 00:40:24;;;;;;;1.60;0.90;;;4.70;99.90;;;;;;5095739;28;20230;-57
2022/04/09 00:42:50;;;;;;;2.05;0.82;;;4.70;99.90;;;;;;5077486;28;20185;-57
2022/04/09 00:45:16;;;;;;;1.27;0.77;;;4.60;99.90;;;;;;5095790;28;20177;-57
2022/04/09 00:47:42;;;;;;;1.87;1.07;;;4.70;99.90;;;;;;5077321;28;20215;-57
2022/04/09 00:50:10;;;;;;;2.03;0.70;;;4.70;99.90;;;;;;5077423;28;20231;-57
2022/04/09 00:52:41;;;;;;;2.93;1.23;;;4.60;99.90;;;;;;5095519;28;20204;-57
2022/04/09 00:55:07;;;;;;;2.60;0.80;;;4.60;99.90;;;;;;5095411;28;20204;-57
2022/04/09 00:57:34;;;;;;;3.10;0.73;;;4.60;99.90;;;;;;5095247;28;20204;-57
2022/04/09 01:00:09;;;;;;;0.77;0.60;;;4.60;99.90;;;;;;5077069;28;20272;-57
2022/04/09 01:02:42;;;;;;;5.50;1.23;;;4.60;99.90;;;;;;5095293;28;20195;-58
2022/04/09 01:05:09;;;;;;;2.97;1.17;;;4.50;99.90;;;;;;5094979;28;20684;-57
2022/04/09 01:07:36;;;;;;;4.27;1.03;;;4.60;99.90;;;;;;5095325;28;20258;-57
2022/04/09 01:10:03;;;;;;;1.00;0.60;;;4.60;99.90;;;;;;5095127;28;20169;-58
2022/04/09 01:12:29;;;;;;;2.80;0.70;;;4.60;99.90;;;;;;5094942;28;20174;-57
2022/04/09 01:14:55;;;;;;;2.05;1.10;;;4.50;99.90;;;;;;5095259;28;20213;-58
2022/04/09 01:17:20;;;;;;;0.70;0.60;;;4.50;99.90;;;;;;5095035;28;20207;-57
2022/04/09 01:19:46;;;;;;;0.87;0.80;;;4.60;99.90;;;;;;5094946;28;20174;-57
2022/04/09 01:22:12;;;;;;;0.77;0.70;;;4.60;99.90;;;;;;5094859;28;20177;-57
2022/04/09 01:24:37;;;;;;;1.53;0.90;;;4.70;99.90;;;;;;5094691;28;20189;-57
2022/04/09 01:27:03;;;;;;;1.35;0.75;;;4.80;99.90;;;;;;5094522;28;20252;-57
2022/04/09 01:29:29;;;;;;;2.33;0.90;;;4.90;99.90;;;;;;5094497;28;20251;-58
2022/04/09 01:31:55;;;;;;;1.60;0.93;;;4.90;99.90;;;;;;5094754;28;20220;-57
2022/04/09 01:34:20;;;;;;;1.45;0.88;;;5.00;99.90;;;;;;5076353;28;20667;-58
2022/04/09 01:36:46;;;;;;;2.30;1.00;;;5.10;99.90;;;;;;5094826;28;20193;-58
2022/04/09 01:39:13;;;;;;;1.17;1.00;;;5.10;99.90;;;;;;5095003;28;20628;-58
2022/04/09 01:41:38;;;;;;;3.65;0.98;;;5.10;99.90;;;;;;5094592;28;20180;-58
2022/04/09 01:44:04;;;;;;;1.83;1.00;;;5.10;99.90;;;;;;5095324;28;20181;-58
2022/04/09 01:46:30;;;;;;;1.48;0.80;;;5.00;99.90;;;;;;5076484;28;20177;-58
2022/04/09 01:48:56;;;;;;;1.47;1.07;;;5.10;99.90;;;;;;5076638;28;20177;-57
2022/04/09 01:51:21;;;;;;;1.40;0.93;;;5.00;99.90;;;;;;5094269;28;20215;-57
2022/04/09 01:53:47;;;;;;;2.58;0.90;;;4.90;99.90;;;;;;5094201;28;20680;-57
2022/04/09 01:56:13;;;;;;;3.47;0.90;;;4.80;99.90;;;;;;5094108;28;20256;-57
2022/04/09 01:58:38;;;;;;;1.65;1.05;;;4.70;99.90;;;;;;5094200;28;20192;-57
2022/04/09 02:01:06;;;;;;;3.33;1.20;;;4.60;99.90;;;;;;5059460;28;20238;-57
2022/04/09 02:03:32;;;;;;;2.40;1.20;;;4.60;99.90;;;;;;5093986;28;20203;-58
2022/04/09 02:05:58;;;;;;;3.07;1.00;;;4.60;99.90;;;;;;5093945;28;20180;-57
2022/04/09 02:08:24;;;;;;;2.83;1.10;;;4.50;99.90;;;;;;5075874;28;20177;-57
2022/04/09 02:10:49;;;;;;;4.53;1.00;;;4.50;99.90;;;;;;5093716;28;20177;-57
2022/04/09 02:13:18;;;;;;;2.35;1.25;;;4.50;99.90;;;;;;5093930;28;20212;-57
2022/04/09 02:15:44;;;;;;;3.42;1.20;;;4.50;99.90;;;;;;5093964;28;20176;-57
2022/04/09 02:18:09;;;;;;;4.67;1.43;;;4.50;99.90;;;;;;5075735;28;20314;-57
2022/04/09 02:20:35;;;;;;;1.95;1.10;;;4.50;99.90;;;;;;5093871;28;20215;-57
2022/04/09 02:23:01;;;;;;;4.20;1.43;;;4.50;99.90;;;;;;5093697;28;20212;-57
2022/04/09 02:25:26;;;;;;;4.50;1.23;;;4.50;99.90;;;;;;5093488;28;20181;-57
2022/04/09 02:27:52;;;;;;;3.40;1.40;;;4.40;99.90;;;;;;5093414;28;20650;-57
2022/04/09 02:30:18;;;;;;;1.77;1.13;;;4.30;99.90;;;;;;5093769;28;20544;-57
2022/04/09 02:32:52;;;;;;;3.80;1.40;;;4.20;99.90;;;;;;5075598;28;20189;-57
2022/04/09 02:35:18;;;;;;;5.00;1.43;;;4.20;99.90;;;;;;5093501;28;20213;-58
2022/04/09 02:37:44;;;;;;;2.07;1.20;;;4.10;99.90;;;;;;5093458;28;20177;-57
2022/04/09 02:40:11;;;;;;;2.07;1.40;;;4.00;99.90;;;;;;5075243;28;20532;-58
2022/04/09 02:42:37;;;;;;;3.47;1.43;;;4.10;99.90;;;;;;5075317;28;20632;-57
2022/04/09 02:45:07;;;;;;;1.80;1.30;;;4.10;99.90;;;;;;5093479;28;20185;-57
2022/04/09 02:47:33;;;;;;;2.33;1.30;;;4.10;99.90;;;;;;5075282;28;20188;-57
2022/04/09 02:50:00;;;;;;;2.63;1.60;;;4.00;99.90;;;;;;5093241;28;20180;-57
2022/04/09 02:52:27;;;;;;;1.40;1.20;;;3.90;99.90;;;;;;5093235;28;20181;-57
2022/04/09 02:54:53;;;;;;;2.60;1.67;;;3.90;99.90;;;;;;5093443;28;20205;-57
2022/04/09 02:57:19;;;;;;;3.80;1.20;;;4.00;99.90;;;;;;5093352;28;20184;-57
2022/04/09 02:59:45;;;;;;;3.53;1.40;;;4.00;99.90;;;;;;5093584;28;20195;-57
2022/04/09 03:02:11;;;;;;;2.43;1.23;;;3.90;99.90;;;;;;5074943;28;20180;-57
2022/04/09 03:04:36;;;;;;;2.63;1.30;;;3.90;99.90;;;;;;5093005;28;20204;-57
2022/04/09 03:07:02;;;;;;;2.67;1.30;;;4.00;99.90;;;;;;5075318;28;20177;-57
2022/04/09 03:09:28;;;;;;;2.83;1.17;;;3.90;99.90;;;;;;5092945;28;20173;-57
2022/04/09 03:11:53;;;;;;;1.73;1.13;;;3.90;99.90;;;;;;5058395;28;20185;-57
2022/04/09 03:14:20;;;;;;;2.37;1.37;;;3.80;99.90;;;;;;5093073;28;20209;-57
2022/04/09 03:16:46;;;;;;;3.67;1.30;;;3.90;99.90;;;;;;5092924;28;20189;-57
2022/04/09 03:19:11;;;;;;;2.37;1.30;;;3.90;99.90;;;;;;5075005;28;20183;-57
2022/04/09 03:21:37;;;;;;;3.70;1.20;;;3.80;99.90;;;;;;5075027;28;20234;-57
2022/04/09 03:24:03;;;;;;;2.70;1.10;;;3.70;99.90;;;;;;5093416;28;20242;-58
2022/04/09 03:26:28;;;;;;;1.53;1.10;;;3.70;99.90;;;;;;5074847;28;20173;-57
2022/04/09 03:28:54;;;;;;;1.57;1.40;;;3.70;99.90;;;;;;5093324;28;20189;-58
2022/04/09 03:31:20;;;;;;;2.13;1.30;;;3.60;99.90;;;;;;5093036;28;20182;-57
2022/04/09 03:33:47;;;;;;;3.20;1.80;;;3.70;99.90;;;;;;5092762;28;20213;-57
2022/04/09 03:36:13;;;;;;;3.47;1.37;;;3.60;99.90;;;;;;5092719;28;20183;-57
2022/04/09 03:38:41;;;;;;;3.17;1.33;;;3.60;99.90;;;;;;5094409;28;20197;-57
2022/04/09 03:41:07;;;;;;;1.10;1.00;;;3.50;99.90;;;;;;5097459;28;20212;-57
2022/04/09 03:43:32;;;;;;;1.33;0.90;;;3.60;99.90;;;;;;5096951;28;20219;-57
2022/04/09 03:45:58;;;;;;;1.37;0.97;;;3.60;99.90;;;;;;5096688;28;20181;-57
2022/04/09 03:48:24;;;;;;;2.90;1.27;;;3.60;99.90;;;;;;5061928;28;20185;-57
2022/04/09 03:50:49;;;;;;;2.87;1.60;;;3.70;99.90;;;;;;5096537;28;20181;-57
2022/04/09 03:53:20;;;;;;;1.83;1.17;;;3.70;99.90;;;;;;5078338;28;20189;-57
2022/04/09 03:55:49;;;;;;;3.83;1.37;;;3.70;99.90;;;;;;5096659;28;20546;-57
2022/04/09 03:58:19;;;;;;;4.27;1.03;;;3.70;99.90;;;;;;5096370;28;20668;-57
2022/04/09 04:00:45;;;;;;;1.47;0.80;;;3.70;99.90;;;;;;5078449;28;20187;-57
2022/04/09 04:03:12;;;;;;;3.30;0.83;;;3.70;99.90;;;;;;5096636;28;20276;-57
2022/04/09 04:05:38;;;;;;;2.57;0.97;;;3.70;99.90;;;;;;5096632;28;20184;-57
2022/04/09 04:08:07;;;;;;;2.53;1.13;;;3.70;99.90;;;;;;5078250;28;20185;-57
2022/04/09 04:10:35;;;;;;;3.90;0.93;;;3.60;99.90;;;;;;5096239;28;20700;-57
2022/04/09 04:13:02;;;;;;;2.33;0.90;;;3.70;99.90;;;;;;5096142;28;20185;-57
2022/04/09 04:15:28;;;;;;;1.70;0.80;;;3.70;99.90;;;;;;5096034;28;20266;-57
2022/04/09 04:17:55;;;;;;;2.97;1.00;;;3.70;99.90;;;;;;5096014;28;20252;-57
2022/04/09 04:20:21;;;;;;;2.13;1.10;;;3.70;99.90;;;;;;5096127;28;20189;-57
2022/04/09 04:22:46;;;;;;;2.30;1.00;;;3.70;99.90;;;;;;5096071;28;20188;-57
2022/04/09 04:25:12;;;;;;;1.87;1.20;;;3.80;99.90;;;;;;5077934;28;20259;-57
2022/04/09 04:27:46;;;;;;;3.20;1.23;;;3.80;99.90;;;;;;5095932;28;20264;-57
2022/04/09 04:30:13;;;;;;;3.07;0.90;;;3.80;99.90;;;;;;5095843;28;20173;-57
2022/04/09 04:32:39;;;;;;;2.33;1.30;;;3.80;99.90;;;;;;5077632;28;20259;-57
2022/04/09 04:35:06;;;;;;;1.70;1.10;;;3.80;99.90;;;;;;5095803;28;20223;-57
2022/04/09 04:37:43;;;;;;;2.57;1.10;;;3.80;99.90;;;;;;5077768;28;20238;-57
2022/04/09 04:40:10;;;;;;;2.90;1.10;;;3.80;99.90;;;;;;5095687;28;20628;-57
2022/04/09 04:42:36;;;;;;;2.43;1.07;;;3.80;99.90;;;;;;5095443;28;20187;-57
2022/04/09 04:45:04;;;;;;;2.53;1.40;;;3.80;99.90;;;;;;5077331;28;20185;-57
2022/04/09 04:47:30;;;;;;;6.17;1.50;;;3.80;99.90;;;;;;5077515;28;20216;-57
2022/04/09 04:49:55;;;;;;;3.07;1.23;;;3.70;99.90;;;;;;5095198;28;20212;-58
2022/04/09 04:52:21;;;;;;;2.13;1.13;;;3.60;99.90;;;;;;5095545;28;20701;-57
2022/04/09 04:54:47;;;;;;;2.37;1.37;;;3.60;99.90;;;;;;5077305;28;20209;-57
2022/04/09 04:57:12;;;;;;;4.13;1.20;;;3.60;99.90;;;;;;5095659;28;20176;-57
2022/04/09 04:59:38;;;;;;;3.13;1.00;;;3.50;99.90;;;;;;5095229;28;20525;-57
2022/04/09 05:02:04;;;;;;;4.10;1.17;;;3.60;99.90;;;;;;5095357;28;20177;-57
2022/04/09 05:04:30;;;;;;;4.20;1.13;;;3.60;99.90;;;;;;5094891;28;20608;-57
2022/04/09 05:06:56;;;;;;;2.30;1.10;;;3.60;99.90;;;;;;5095181;28;20181;-56
2022/04/09 05:09:22;;;;;;;1.43;0.97;;;3.50;99.90;;;;;;5094997;28;20173;-58
2022/04/09 05:11:48;;;;;;;2.33;1.27;;;3.60;99.90;;;;;;5095096;28;20201;-58
2022/04/09 05:14:13;;;;;;;3.50;1.80;;;3.60;99.90;;;;;;5094727;28;20205;-58
2022/04/09 05:16:39;;;;;;;5.20;1.37;;;3.60;99.90;;;;;;5076783;28;20207;-58
2022/04/09 05:19:05;;;;;;;4.07;1.60;;;3.60;99.90;;;;;;5095038;28;20209;-58
2022/04/09 05:21:30;;;;;;;1.57;1.10;;;3.70;99.90;;;;;;5094932;28;20235;-58
2022/04/09 05:23:56;;;;;;;1.93;1.40;;;3.70;99.90;;;;;;5094987;28;20624;-58
2022/04/09 05:26:22;;;;;;;1.20;0.97;;;3.70;99.90;;;;;;5076622;28;20651;-58
2022/04/09 05:28:53;;;;;;;2.60;1.30;;;3.80;99.90;;;;;;5076374;28;20277;-58
2022/04/09 05:31:22;;;;;;;1.00;0.80;;;3.70;99.90;;;;;;5076644;28;20176;-57
2022/04/09 05:33:48;;;;;;;3.97;1.20;;;3.70;99.90;;;;;;5094555;28;20248;-58
2022/04/09 05:36:13;;;;;;;1.33;1.00;;;3.70;99.90;;;;;;5076419;28;20215;-57
2022/04/09 05:38:39;;;;;;;1.73;1.23;;;3.80;99.90;;;;;;5094459;28;20176;-58
2022/04/09 05:41:04;;;;;;;2.47;1.40;;;3.80;99.90;;;;;;5094351;28;20177;-57
2022/04/09 05:43:30;;;;;;;5.63;1.60;;;3.80;99.90;;;;;;5076161;28;20261;-58
2022/04/09 05:45:57;;;;;;;4.13;1.47;;;3.80;99.90;;;;;;5094369;28;20185;-57
2022/04/09 05:48:22;;;;;;;2.53;1.20;;;3.80;99.90;;;;;;5094212;28;20188;-57
2022/04/09 05:50:48;;;;;;;2.30;1.33;;;3.90;99.90;;;;;;5076229;28;20174;-57
2022/04/09 05:53:14;;;;;;;4.13;1.77;;;4.00;99.90;;;;;;5059565;28;20188;-57
2022/04/09 05:55:39;;;;;;;3.17;1.57;;;4.10;99.90;;;;;;5094071;28;20196;-57
2022/04/09 05:58:05;;;;;;;4.10;1.30;;;4.20;99.90;;;;;;5093940;28;20192;-58
2022/04/09 06:00:32;;;;;;;3.00;1.60;;;4.30;99.90;;;;;;5093849;28;20169;-57
2022/04/09 06:02:58;;;;;;;3.90;1.60;;;4.40;99.90;;;;;;5093506;28;20184;-57
2022/04/09 06:05:24;;;;;;;4.50;1.88;;;4.60;99.90;;;;;;5075693;28;20197;-57
2022/04/09 06:07:50;;;;;;;4.43;1.53;;;4.80;99.90;;;;;;5075938;28;20297;-57
2022/04/09 06:10:15;;;;;;;3.77;1.63;;;5.10;99.90;;;;;;5085661;28;20189;-58
2022/04/09 06:12:41;;;;;;;5.23;1.77;;;5.40;99.90;;;;;;5075336;28;20185;-57
2022/04/09 06:15:08;;;;;;;2.72;1.67;;;5.60;99.90;;;;;;5093225;28;20248;-57
2022/04/09 06:17:36;;;;;;;2.97;1.75;;;5.90;99.90;;;;;;5094006;28;20273;-57
2022/04/09 06:20:02;;;;;;;2.80;2.15;;;6.00;99.90;;;;;;5075660;28;20209;-57
2022/04/09 06:22:27;;;;;;;5.32;2.42;;;6.30;99.90;;;;;;5093184;28;20177;-58
2022/04/09 06:24:53;;;;;;;2.95;1.83;;;6.60;99.90;;;;;;5072753;28;20271;-58
2022/04/09 06:27:19;;;;;;;3.38;1.77;;;6.70;99.90;;;;;;5093336;28;20175;-58
2022/04/09 06:29:44;;;;;;;4.13;1.42;;;6.90;99.90;;;;;;5093476;28;20185;-58
2022/04/09 06:32:10;;;;;;;4.00;1.90;;;6.90;99.90;;;;;;5075218;28;20683;-57
2022/04/09 06:34:36;;;;;;;3.55;2.47;;;7.10;99.90;;;;;;5093075;28;20212;-58
2022/04/09 06:37:01;;;;;;;2.45;2.00;;;7.10;99.90;;;;;;5058257;28;20556;-58
2022/04/09 06:39:27;;;;;;;4.50;2.00;;;7.10;99.90;;;;;;5093019;28;20185;-57
2022/04/09 06:41:53;;;;;;;3.85;2.08;;;7.30;99.90;;;;;;5073462;28;20180;-58
2022/04/09 06:44:19;;;;;;;2.83;1.98;;;7.30;99.90;;;;;;5092318;28;20704;-58
2022/04/09 06:46:46;;;;;;;3.45;1.95;;;7.30;99.90;;;;;;5093115;28;20644;-58
2022/04/09 06:49:16;;;;;;;4.13;2.08;;;7.50;99.90;;;;;;5059068;28;20192;-58
2022/04/09 06:51:42;;;;;;;5.57;2.10;;;7.70;99.90;;;;;;5093137;28;20202;-58
2022/04/09 06:54:09;;;;;;;3.45;1.95;;;7.70;99.90;;;;;;5075054;28;20208;-58
2022/04/09 06:56:36;;;;;;;3.08;1.52;;;7.70;99.90;;;;;;5056032;28;20190;-58
2022/04/09 06:59:03;;;;;;;3.00;2.03;;;7.80;99.90;;;;;;5038772;28;20175;-58
2022/04/09 07:01:30;;;;;;;2.72;2.20;;;7.80;99.90;;;;;;5073224;28;20178;-58
2022/04/09 07:03:56;;;;;;;3.72;2.35;;;8.20;99.90;;;;;;5073333;28;20229;-57
2022/04/09 07:06:22;;;;;;;5.93;2.30;;;8.40;99.90;;;;;;5072901;28;20269;-58
2022/04/09 07:08:47;;;;;;;4.53;3.35;;;8.50;99.90;;;;;;5055120;28;20170;-58
2022/04/09 07:11:13;;;;;;;3.75;2.78;;;8.70;99.90;;;;;;5072779;28;20236;-59
2022/04/09 07:13:39;;;;;;;3.65;2.40;;;8.80;99.90;;;;;;5075967;28;20236;-58
2022/04/09 07:16:05;;;;;;;4.93;2.45;;;8.90;99.90;;;;;;5077083;28;20174;-58
2022/04/09 07:18:32;;;;;;;4.18;2.50;;;9.10;99.90;;;;;;5077003;28;20175;-58
2022/04/09 07:20:58;;;;;;;4.60;3.10;;;9.20;99.90;;;;;;5058899;28;20170;-58
2022/04/09 07:23:23;;;;;;;7.25;3.55;;;9.40;99.90;;;;;;5058839;28;20175;-58
2022/04/09 07:25:49;;;;;;;4.70;2.70;;;9.50;99.90;;;;;;5042567;28;20648;-58
2022/04/09 07:28:15;;;;;;;3.33;2.38;;;9.60;99.90;;;;;;5076906;28;20529;-58
2022/04/09 07:30:42;;;;;;;5.82;2.72;;;9.70;99.90;;;;;;5076853;28;20170;-58
2022/04/09 07:33:07;;;;;;;3.08;2.58;;;9.90;99.90;;;;;;5076847;28;20170;-59
2022/04/09 07:35:35;;;;;;;3.78;2.10;;;10.00;99.90;;;;;;5076602;28;20221;-59
2022/04/09 07:38:01;;;;;;;3.67;2.30;;;10.10;99.90;;;;;;5076528;28;20260;-58
2022/04/09 07:40:30;;;;;;;6.53;2.35;;;10.20;99.90;;;;;;5076469;28;20171;-58
2022/04/09 07:42:58;;;;;;;3.13;2.10;;;10.30;99.90;;;;;;5058667;28;20233;-58
2022/04/09 07:45:25;;;;;;;2.85;2.00;;;10.30;99.90;;;;;;5076486;28;20174;-58
2022/04/09 07:47:59;;;;;;;3.10;1.98;;;10.30;99.90;;;;;;5076385;28;20170;-57
2022/04/09 07:50:25;;;;;;;3.13;1.90;;;10.40;99.90;;;;;;5076246;28;20175;-57
2022/04/09 07:52:51;;;;;;;3.35;2.08;;;10.60;99.90;;;;;;5076114;28;20183;-57
2022/04/09 07:55:17;;;;;;;3.28;1.73;;;10.70;99.90;;;;;;5076304;28;20210;-58
2022/04/09 07:57:50;;;;;;;2.97;1.75;;;10.90;99.90;;;;;;5076243;28;20510;-58
2022/04/09 08:00:17;;;;;;;1.73;1.42;;;11.00;99.90;;;;;;5058305;28;20267;-58
2022/04/09 08:02:43;;;;;;;4.20;1.77;;;10.90;99.90;;;;;;5076087;28;20265;-58
2022/04/09 08:05:11;;;;;;;2.45;1.30;;;11.10;99.90;;;;;;5058307;28;20641;-57
2022/04/09 08:07:38;;;;;;;2.35;1.23;;;11.10;99.90;;;;;;5076218;28;20563;-58
2022/04/09 08:10:05;;;;;;;2.70;0.90;;;11.30;99.90;;;;;;5075912;28;20256;-57
2022/04/09 08:12:31;;;;;;;1.40;0.85;;;11.20;99.90;;;;;;5076064;28;20175;-58
2022/04/09 08:14:57;;;;;;;2.80;1.30;;;11.00;99.90;;;;;;5057963;28;20211;-58
2022/04/09 08:17:23;;;;;;;2.47;1.20;;;11.10;99.90;;;;;;5041318;28;20439;-58
2022/04/09 08:19:49;;;;;;;2.60;0.90;;;11.30;99.90;;;;;;5076024;28;20170;-57
2022/04/09 08:22:16;;;;;;;3.22;1.30;;;11.50;99.90;;;;;;5075865;28;20181;-57
2022/04/09 08:24:42;;;;;;;2.13;1.48;;;11.70;99.90;;;;;;5074950;28;20179;-57
2022/04/09 08:27:08;;;;;;;3.15;1.85;;;11.60;99.90;;;;;;5057900;28;20170;-57
2022/04/09 08:29:35;;;;;;;4.28;1.30;;;11.70;99.90;;;;;;5057591;28;20633;-57
2022/04/09 08:32:01;;;;;;;2.85;1.17;;;11.90;99.90;;;;;;5057650;28;20534;-58
2022/04/09 08:34:29;;;;;;;2.45;1.60;;;12.10;99.90;;;;;;5075577;28;20210;-58
2022/04/09 08:36:55;;;;;;;2.10;1.70;;;12.10;99.90;;;;;;5075586;28;20182;-57
2022/04/09 08:39:21;;;;;;;2.53;1.83;;;12.10;99.90;;;;;;5075575;28;20596;-57
2022/04/09 08:41:49;;;;;;;2.85;1.73;;;12.30;99.90;;;;;;5075454;28;20253;-58
2022/04/09 08:44:17;;;;;;;2.05;1.73;;;12.20;99.90;;;;;;5075271;28;20178;-58
2022/04/09 08:46:44;;;;;;;4.20;2.03;;;12.20;99.90;;;;;;5075227;28;20262;-57
2022/04/09 08:49:11;;;;;;;2.65;1.90;;;12.30;99.90;;;;;;5074399;28;20637;-58
2022/04/09 08:51:37;;;;;;;3.15;2.13;;;12.10;99.90;;;;;;5091968;28;20193;-58
2022/04/09 08:54:04;;;;;;;2.15;1.95;;;12.30;99.90;;;;;;5077052;28;20296;-57
2022/04/09 08:56:34;;;;;;;2.33;1.88;;;12.40;99.90;;;;;;5077335;28;20208;-58
2022/04/09 08:59:03;;;;;;;3.53;1.58;;;12.50;99.90;;;;;;5094962;28;20178;-58
2022/04/09 09:01:30;;;;;;;2.83;1.60;;;12.60;99.90;;;;;;5094684;28;20174;-58
2022/04/09 09:03:57;;;;;;;1.63;1.48;;;12.70;99.90;;;;;;5094836;28;20205;-58
2022/04/09 09:06:35;;;;;;;3.17;1.40;;;12.50;99.90;;;;;;5093898;28;20174;-58
2022/04/09 09:09:02;;;;;;;1.92;1.40;;;12.40;99.90;;;;;;5094465;28;20533;-57
2022/04/09 09:11:29;;;;;;;2.00;1.55;;;12.40;99.90;;;;;;5094930;28;20170;-56
2022/04/09 09:13:57;;;;;;;2.22;1.65;;;12.20;99.90;;;;;;5094526;28;20225;-57
2022/04/09 09:16:32;;;;;;;2.13;1.40;;;12.30;99.90;;;;;;5094637;28;20193;-59
2022/04/09 09:18:59;;;;;;;2.08;1.65;;;12.30;99.90;;;;;;5094171;28;20166;-58
2022/04/09 09:21:28;;;;;;;3.10;1.63;;;12.50;99.90;;;;;;5094351;28;20227;-58
2022/04/09 09:24:09;;;;;;;1.90;1.30;;;12.90;99.90;;;;;;5093495;28;20182;-58
2022/04/09 09:26:39;;;;;;;1.30;0.98;;;12.90;99.90;;;;;;5094857;28;20180;-57
2022/04/09 09:29:06;;;;;;;1.65;1.10;;;12.50;99.90;;;;;;5094404;28;20594;-58
2022/04/09 09:31:47;;;;;;;2.92;1.55;;;11.90;99.90;;;;;;5076181;28;20265;-58
2022/04/09 09:34:19;;;;;;;2.28;1.25;;;12.10;99.90;;;;;;5094131;28;20296;-57
2022/04/09 09:36:45;;;;;;;1.10;0.70;;;12.50;99.90;;;;;;5093145;28;20169;-58
2022/04/09 09:39:15;;;;;;;0.93;0.80;;;13.00;99.90;;;;;;5094526;28;20174;-58
2022/04/09 09:41:54;;;;;;;1.25;1.15;;;13.30;99.90;;;;;;5094287;28;20629;-58
2022/04/09 09:44:25;;;;;;;1.75;1.10;;;13.40;99.90;;;;;;5094242;28;20174;-57
2022/04/09 09:46:53;;;;;;;1.77;1.00;;;13.50;99.90;;;;;;5094151;28;20224;-58
2022/04/09 09:49:22;;;;;;;2.08;0.95;;;13.60;99.90;;;;;;5094015;28;20174;-57
2022/04/09 09:52:09;;;;;;;0.90;0.82;;;13.50;99.90;;;;;;5094153;28;20184;-58
2022/04/09 09:54:57;;;;;;;1.25;0.80;;;13.20;99.90;;;;;;5073680;28;20550;-57
2022/04/09 09:57:26;;;;;;;1.58;1.08;;;13.20;99.90;;;;;;5073573;28;20696;-57
2022/04/09 10:00:01;;;;;;;0.70;0.70;;;13.40;99.90;;;;;;5073781;28;20179;-57
2022/04/09 10:02:27;;;;;;;2.10;1.10;;;13.50;99.90;;;;;;5073573;28;20178;-57
2022/04/09 10:04:53;;;;;;;0.82;0.60;;;13.20;99.90;;;;;;5073614;28;20355;-57
2022/04/09 10:07:19;;;;;;;0.80;0.60;;;12.50;99.90;;;;;;5055765;28;20181;-57
2022/04/09 10:09:46;;;;;;;0.65;0.60;;;12.30;99.90;;;;;;5073394;28;20171;-57
2022/04/09 10:12:23;;;;;;;1.48;0.80;;;12.20;99.90;;;;;;5055519;28;20265;-58
2022/04/09 10:14:54;;;;;;;2.40;0.73;;;12.60;99.90;;;;;;5073458;28;20206;-57
2022/04/09 10:17:22;;;;;;;1.00;0.70;;;12.30;99.90;;;;;;5078187;28;20709;-57
2022/04/09 10:19:58;;;;;;;1.48;1.02;;;11.90;99.90;;;;;;5093655;28;20205;-57
2022/04/09 10:22:27;;;;;;;1.05;0.90;;;11.60;99.90;;;;;;5092198;28;20248;-57
2022/04/09 10:24:55;;;;;;;1.30;1.20;;;11.50;99.90;;;;;;5073425;28;20617;-57
2022/04/09 10:27:43;;;;;;;1.55;0.88;;;11.50;99.90;;;;;;5073503;28;20170;-57
2022/04/09 10:30:12;;;;;;;0.77;0.75;;;12.10;99.90;;;;;;5073210;28;20166;-57
2022/04/09 10:32:42;;;;;;;1.40;0.77;;;12.50;99.90;;;;;;5073205;28;20198;-57
2022/04/09 10:35:29;;;;;;;1.85;1.00;;;13.10;99.90;;;;;;5072964;28;20214;-57
2022/04/09 10:38:10;;;;;;;1.48;1.05;;;13.50;99.00;;;;;;5079988;28;20533;-57
2022/04/09 10:40:56;;;;;;;1.75;0.98;;;13.90;99.90;;;;;;5093115;28;20182;-57
2022/04/09 10:43:22;;;;;;;1.15;0.63;;;13.70;99.40;;;;;;5092628;28;20533;-57
2022/04/09 10:46:06;;;;;;;1.30;0.85;;;13.60;99.90;;;;;;5093229;28;20165;-57
2022/04/09 10:48:33;;;;;;;1.98;0.90;;;13.50;99.50;;;;;;5092542;28;20586;-57
2022/04/09 10:51:04;;;;;;;1.58;0.65;;;13.70;99.70;;;;;;5092986;28;20663;-57
2022/04/09 10:53:41;;;;;;;0.65;0.43;;;13.30;96.90;;;;;;5092730;28;20264;-57
2022/04/09 10:56:12;;;;;;;1.08;0.50;;;13.30;98.50;;;;;;5092889;28;20173;-57
2022/04/09 10:59:06;;;;;;;1.55;0.55;;;13.30;98.40;;;;;;5093041;28;20648;-57
2022/04/09 11:01:45;;;;;;;1.02;0.80;;;13.20;99.90;;;;;;5093112;28;20177;-57
2022/04/09 11:04:30;;;;;;;1.10;0.80;;;13.50;99.90;;;;;;5092863;28;20250;-57
2022/04/09 11:07:02;;;;;;;0.77;0.55;;;13.80;99.90;;;;;;5093118;28;20178;-57
2022/04/09 11:09:49;;;;;;;0.30;0.30;;;13.50;99.90;;;;;;5075169;28;20170;-57
2022/04/09 11:12:18;;;;;;;1.33;0.55;;;13.10;96.90;;;;;;5092955;28;20235;-57
2022/04/09 11:14:49;;;;;;;0.40;0.40;;;12.50;99.20;;;;;;5092620;28;20197;-57
2022/04/09 11:17:39;;;;;;;0.73;0.60;;;12.40;99.90;;;;;;5074925;28;20220;-57
2022/04/09 11:20:20;;;;;;;0.82;0.50;;;12.90;99.90;;;;;;5091976;28;20632;-58
2022/04/09 11:22:55;;;;;;;0.55;0.35;;;13.40;97.70;;;;;;5092341;28;20645;-57
2022/04/09 11:25:29;;;;;;;1.25;0.68;;;13.40;96.60;;;;;;5092796;28;20182;-57
2022/04/09 11:28:06;;;;;;;0.68;0.57;;;13.00;96.50;;;;;;5093006;28;20696;-57
2022/04/09 11:30:32;;;;;;;0.57;0.40;;;12.50;97.20;;;;;;5092782;28;20253;-57
2022/04/09 11:32:57;;;;;;;0.30;0.30;;;11.90;85.90;;;;;;5092848;28;20757;-57
2022/04/09 11:35:24;;;;;;;0.50;0.50;;;12.10;99.90;;;;;;5092196;28;20405;-58
2022/04/09 11:37:51;;;;;;;0.73;0.50;;;12.70;99.90;;;;;;5091049;28;20174;-57
2022/04/09 11:40:18;;;;;;;0.40;0.30;;;13.00;94.40;;;;;;5092776;28;20571;-57
2022/04/09 11:42:49;;;;;;;0.93;0.50;;;13.00;97.00;;;;;;5093262;28;20169;-57
2022/04/09 11:45:27;;;;;;;0.35;0.35;;;12.70;97.20;;;;;;5092925;28;20174;-57
2022/04/09 11:48:01;;;;;;;1.27;0.60;;;12.70;98.20;;;;;;5092698;28;20178;-57
2022/04/09 11:50:34;;;;;;;0.98;0.82;;;12.60;97.30;;;;;;5093021;28;20166;-57
2022/04/09 11:53:14;;;;;;;1.70;0.50;;;12.40;98.30;;;;;;5093324;28;20166;-57
2022/04/09 11:55:42;;;;;;;0.80;0.45;;;12.80;96.60;;;;;;5092657;28;20248;-57
2022/04/09 11:58:08;;;;;;;0.82;0.50;;;13.10;98.30;;;;;;5092699;28;20575;-57
2022/04/09 12:00:42;;;;;;;1.08;0.60;;;13.40;97.20;;;;;;5095027;28;20166;-57
2022/04/09 12:03:08;;;;;;;0.70;0.60;;;13.60;95.90;;;;;;5096285;28;20186;-57
2022/04/09 12:05:41;;;;;;;1.45;0.70;;;13.70;96.30;;;;;;5096549;28;20178;-57
2022/04/09 12:08:11;;;;;;;2.92;0.50;;;13.30;97.30;;;;;;5096277;28;20166;-57
2022/04/09 12:10:52;;;;;;;0.52;0.50;;;13.10;85.00;;;;;;5078173;28;20170;-58
2022/04/09 12:13:23;;;;;;;1.85;0.75;;;13.20;97.90;;;;;;5096428;28;20230;-57
2022/04/09 12:15:49;;;;;;;1.10;0.40;;;13.10;97.10;;;;;;5096333;28;20598;-57
2022/04/09 12:18:28;;;;;;;0.90;0.50;;;13.10;95.50;;;;;;5096202;28;20182;-57
2022/04/09 12:20:55;;;;;;;1.25;0.40;;;12.50;87.00;;;;;;5095992;28;20674;-58
2022/04/09 12:23:32;;;;;;;1.85;0.65;;;12.60;97.10;;;;;;5095883;28;20170;-58
2022/04/09 12:25:59;;;;;;;0.68;0.30;;;12.60;94.20;;;;;;5096106;28;20174;-58
2022/04/09 12:28:30;;;;;;;3.15;0.88;;;12.60;90.50;;;;;;5096062;28;20162;-58
2022/04/09 12:30:56;;;;;;;1.25;0.82;;;12.50;93.90;;;;;;5096152;28;20180;-59
2022/04/09 12:33:23;;;;;;;0.50;0.50;;;12.80;96.30;;;;;;5077520;28;20174;-58
2022/04/09 12:35:49;;;;;;;1.98;0.63;;;13.10;95.80;;;;;;5095832;28;20288;-58
2022/04/09 12:38:33;;;;;;;1.23;0.45;;;12.80;93.10;;;;;;5095863;28;20235;-58
2022/04/09 12:41:05;;;;;;;0.40;0.40;;;12.20;80.90;;;;;;5061742;28;20178;-58
2022/04/09 12:43:40;;;;;;;1.08;0.65;;;11.90;93.30;;;;;;5095682;28;20671;-58
2022/04/09 12:46:11;;;;;;;0.88;0.50;;;12.00;96.40;;;;;;5095463;28;20176;-58
2022/04/09 12:48:43;;;;;;;0.60;0.60;;;12.40;93.10;;;;;;5095664;28;20170;-59
2022/04/09 12:51:11;;;;;;;0.80;0.73;;;12.80;96.20;;;;;;5095789;28;20629;-58
2022/04/09 12:53:37;;;;;;;2.53;0.50;;;12.80;85.20;;;;;;5095484;28;20202;-58
2022/04/09 12:56:05;;;;;;;0.63;0.50;;;12.50;90.10;;;;;;5095333;28;20208;-52
2022/04/09 12:58:31;;;;;;;0.60;0.60;;;11.80;92.40;;;;;;5095370;28;20521;-56